Masontown, West Virginia
Current Conditions -  °F | °C
As of 2:53 PM on Friday 21 Nov 2014 (Local Time) from KMGW Reporting Station
Clear Clear  
Wind Chill: 31°   Ceiling: Unl
Heat Index: 31°   Visibility: 10mi
Dew Point:   Wind: 3mph
Humidity: 35%   Direction: NA
Pressure: 30.46"   Gusts: NA
Location:  39.55°N, 79.8°W
Report Text: KMGW 211953Z VRB03KT 10SM CLR M01/M14 A3046 RMK AO2 SLP329 T10061144
Loading
Personal Weather Stations






























Interactive Weather Map New forecast layout! Learn more

10-Day Weather Forecast

Advertisements
Track Severe Weather on mobile